createdAt,value
2023-01-23T00:01:08.581Z,55.30
2023-01-23T00:03:35.207Z,53.60
2023-01-23T00:06:09.133Z,52.67
2023-01-23T00:08:36.611Z,55.10
2023-01-23T00:11:08.377Z,51.97
2023-01-23T00:13:35.697Z,52.30
2023-01-23T00:16:17.816Z,55.00
2023-01-23T00:18:44.842Z,54.67
2023-01-23T00:21:13.791Z,57.35
2023-01-23T00:23:47.693Z,58.47
2023-01-23T00:26:18.523Z,57.40
2023-01-23T00:28:45.970Z,55.70
2023-01-23T00:31:21.122Z,51.67
2023-01-23T00:33:47.927Z,57.00
2023-01-23T00:36:15.252Z,55.60
2023-01-23T00:38:42.343Z,57.78
2023-01-23T00:41:08.943Z,50.17
2023-01-23T00:43:35.561Z,57.25
2023-01-23T00:46:02.284Z,57.63
2023-01-23T00:48:29.013Z,56.30
2023-01-23T00:50:55.670Z,61.88
2023-01-23T00:53:23.090Z,58.20
2023-01-23T00:55:49.806Z,57.67
2023-01-23T00:58:16.751Z,59.95
2023-01-23T01:00:43.447Z,60.17
2023-01-23T01:03:10.568Z,59.75
2023-01-23T01:05:37.689Z,64.82
2023-01-23T01:08:05.414Z,58.10
2023-01-23T01:10:33.911Z,60.17
2023-01-23T01:13:01.872Z,58.72
2023-01-23T01:15:29.228Z,60.40
2023-01-23T01:17:56.363Z,60.17
2023-01-23T01:20:23.863Z,59.15
2023-01-23T01:22:51.337Z,60.53
2023-01-23T01:25:18.547Z,58.90
2023-01-23T01:27:45.929Z,55.58
2023-01-23T01:30:13.680Z,60.20
2023-01-23T01:32:41.267Z,56.10
2023-01-23T01:35:08.833Z,54.72
2023-01-23T01:37:36.650Z,53.90
2023-01-23T01:40:04.220Z,54.30
2023-01-23T01:42:31.261Z,49.28
2023-01-23T01:45:00.032Z,52.17
2023-01-23T01:47:27.354Z,52.67
2023-01-23T01:49:57.832Z,56.58
2023-01-23T01:52:25.052Z,53.22
2023-01-23T01:54:54.160Z,53.72
2023-01-23T01:57:32.514Z,50.70
2023-01-23T02:00:02.989Z,48.83
2023-01-23T02:02:32.360Z,49.40
2023-01-23T02:05:05.545Z,50.70
2023-01-23T02:07:45.189Z,51.63
2023-01-23T02:10:12.707Z,47.45
2023-01-23T02:12:39.962Z,50.97
2023-01-23T02:15:08.105Z,53.15
2023-01-23T02:17:37.719Z,52.20
2023-01-23T02:20:04.842Z,48.15
2023-01-23T02:22:37.407Z,54.53
2023-01-23T02:25:33.863Z,52.75
2023-01-23T02:28:01.840Z,51.58
2023-01-23T02:30:28.904Z,53.03
2023-01-23T02:32:56.154Z,52.45
2023-01-23T02:35:28.393Z,56.65
2023-01-23T02:37:57.883Z,48.53
2023-01-23T02:40:31.570Z,48.85
2023-01-23T02:42:59.423Z,53.75
2023-01-23T02:45:27.420Z,49.97
2023-01-23T02:47:54.453Z,47.13
2023-01-23T02:50:21.693Z,52.85
2023-01-23T02:52:51.539Z,48.08
2023-01-23T02:55:18.632Z,49.15
2023-01-23T02:57:45.675Z,51.60
2023-01-23T03:00:16.496Z,50.20
2023-01-23T03:02:43.895Z,52.45
2023-01-23T03:05:11.267Z,49.42
2023-01-23T03:07:38.460Z,48.00
2023-01-23T03:10:07.746Z,46.25
2023-01-23T03:12:34.772Z,47.25
2023-01-23T03:15:02.587Z,49.08
2023-01-23T03:17:30.123Z,51.38
2023-01-23T03:19:57.731Z,50.05
2023-01-23T03:22:24.872Z,49.25
2023-01-23T03:24:51.992Z,47.17
2023-01-23T03:27:19.030Z,50.72
2023-01-23T03:30:05.199Z,48.58
2023-01-23T03:32:32.238Z,49.75
2023-01-23T03:34:59.326Z,49.50
2023-01-23T03:37:26.421Z,50.17
2023-01-23T03:40:12.295Z,49.13
2023-01-23T03:42:39.333Z,45.75
2023-01-23T03:45:06.811Z,44.97
2023-01-23T03:47:34.148Z,46.33
2023-01-23T03:50:01.140Z,44.20
2023-01-23T03:52:28.314Z,47.35
2023-01-23T03:54:55.387Z,47.95
2023-01-23T03:57:22.389Z,48.08
2023-01-23T03:59:49.429Z,49.78
2023-01-23T04:02:16.488Z,44.78
2023-01-23T04:04:43.522Z,44.50
2023-01-23T04:07:10.581Z,47.65
2023-01-23T04:09:37.622Z,45.38
2023-01-23T04:12:04.747Z,43.92
2023-01-23T04:14:37.089Z,42.20
2023-01-23T04:17:07.382Z,45.47
2023-01-23T04:19:34.719Z,44.50
2023-01-23T04:22:01.768Z,46.95
2023-01-23T04:24:28.835Z,46.00
2023-01-23T04:26:55.905Z,45.80
2023-01-23T04:29:22.923Z,47.33
2023-01-23T04:31:50.016Z,45.67
2023-01-23T04:34:17.110Z,42.97
2023-01-23T04:36:44.120Z,42.83
2023-01-23T04:39:11.188Z,46.08
2023-01-23T04:41:38.191Z,45.15
2023-01-23T04:44:20.704Z,45.80
2023-01-23T04:46:49.828Z,43.40
2023-01-23T04:49:18.620Z,44.40
2023-01-23T04:51:47.990Z,44.85
2023-01-23T04:54:15.517Z,41.25
2023-01-23T04:56:42.796Z,41.03
2023-01-23T04:59:10.092Z,40.58
2023-01-23T05:01:37.554Z,40.92
2023-01-23T05:04:04.982Z,46.78
2023-01-23T05:06:32.309Z,41.53
2023-01-23T05:08:59.566Z,42.33
2023-01-23T05:11:26.647Z,40.65
2023-01-23T05:13:53.760Z,39.80
2023-01-23T05:16:20.793Z,41.50
2023-01-23T05:18:47.838Z,41.63
2023-01-23T05:21:14.903Z,42.95
2023-01-23T05:23:42.005Z,39.67
2023-01-23T05:26:09.064Z,42.63
2023-01-23T05:28:36.113Z,41.65
2023-01-23T05:31:03.558Z,42.65
2023-01-23T05:33:30.660Z,43.97
2023-01-23T05:36:00.944Z,41.63
2023-01-23T05:38:28.052Z,41.80
2023-01-23T05:40:55.140Z,41.08
2023-01-23T05:43:22.204Z,43.88
2023-01-23T05:45:49.423Z,42.58
2023-01-23T05:48:16.490Z,45.00
2023-01-23T05:50:43.534Z,44.58
2023-01-23T05:53:10.554Z,42.88
2023-01-23T05:55:41.052Z,41.42
2023-01-23T05:58:08.108Z,40.03
2023-01-23T06:00:35.192Z,44.25
2023-01-23T06:03:02.291Z,40.22
2023-01-23T06:05:29.384Z,41.53
2023-01-23T06:07:56.450Z,41.60
2023-01-23T06:10:23.544Z,43.00
2023-01-23T06:12:50.581Z,43.30
2023-01-23T06:15:17.607Z,44.45
2023-01-23T06:17:44.715Z,44.00
2023-01-23T06:20:12.478Z,47.08
2023-01-23T06:22:39.584Z,43.28
2023-01-23T06:25:06.918Z,42.97
2023-01-23T06:27:34.087Z,43.40
2023-01-23T06:30:01.224Z,48.60
2023-01-23T06:32:28.240Z,46.40
2023-01-23T06:34:55.262Z,48.42
2023-01-23T06:37:22.261Z,55.67
2023-01-23T06:39:49.264Z,53.28
2023-01-23T06:42:16.302Z,67.47
2023-01-23T06:44:43.405Z,71.13
2023-01-23T06:47:10.494Z,79.75
2023-01-23T06:49:37.882Z,71.43
2023-01-23T06:52:05.072Z,72.38
2023-01-23T06:54:32.086Z,69.05
2023-01-23T06:56:59.135Z,68.70
2023-01-23T06:59:26.187Z,71.40
2023-01-23T07:01:53.327Z,64.35
2023-01-23T07:04:20.420Z,64.90
2023-01-23T07:06:47.500Z,64.07
2023-01-23T07:09:14.503Z,67.68
2023-01-23T07:11:41.549Z,66.93
2023-01-23T07:14:08.541Z,69.43
2023-01-23T07:16:36.212Z,68.38
2023-01-23T07:19:05.234Z,68.78
2023-01-23T07:21:32.556Z,67.25
2023-01-23T07:23:59.598Z,73.47
2023-01-23T07:26:26.752Z,77.18
2023-01-23T07:28:53.942Z,72.20
2023-01-23T07:31:21.048Z,67.25
2023-01-23T07:33:48.166Z,75.88
2023-01-23T07:36:15.294Z,74.03
2023-01-23T07:38:42.416Z,65.57
2023-01-23T07:41:09.619Z,72.32
2023-01-23T07:43:36.617Z,63.95
2023-01-23T07:46:03.656Z,65.65
2023-01-23T07:48:30.786Z,72.50
2023-01-23T07:50:57.920Z,76.55
2023-01-23T07:53:24.965Z,76.95
2023-01-23T07:55:51.939Z,74.68
2023-01-23T07:58:18.928Z,78.15
2023-01-23T08:00:46.062Z,73.97
2023-01-23T08:03:13.217Z,66.30
2023-01-23T08:05:41.782Z,70.43
2023-01-23T08:08:13.807Z,64.53
2023-01-23T08:10:41.508Z,67.35
2023-01-23T08:13:08.554Z,68.68
2023-01-23T08:15:35.653Z,65.93
2023-01-23T08:18:02.696Z,60.10
2023-01-23T08:20:29.692Z,58.00
2023-01-23T08:22:58.866Z,60.25
2023-01-23T08:25:25.932Z,62.38
2023-01-23T08:27:52.949Z,56.17
2023-01-23T08:30:20.223Z,55.70
2023-01-23T08:32:47.419Z,55.28
2023-01-23T08:35:14.614Z,56.67
2023-01-23T08:37:42.243Z,57.08
2023-01-23T08:40:09.810Z,49.90
2023-01-23T08:42:36.879Z,49.92
2023-01-23T08:45:04.581Z,45.72
2023-01-23T08:47:36.288Z,47.80
2023-01-23T08:50:03.726Z,50.08
2023-01-23T08:52:31.158Z,47.95
2023-01-23T08:54:58.144Z,45.30
2023-01-23T08:57:25.209Z,45.25
2023-01-23T08:59:52.273Z,47.53
2023-01-23T09:02:19.423Z,46.83
2023-01-23T09:04:46.652Z,47.60
2023-01-23T09:07:13.712Z,48.35
2023-01-23T09:09:40.694Z,46.00
2023-01-23T09:12:08.282Z,46.20
2023-01-23T09:14:35.359Z,45.80
2023-01-23T09:17:02.392Z,44.50
2023-01-23T09:19:32.152Z,51.38
2023-01-23T09:21:59.255Z,47.08
2023-01-23T09:24:26.338Z,44.20
2023-01-23T09:26:53.380Z,46.40
2023-01-23T09:29:20.395Z,44.25
2023-01-23T09:31:47.460Z,46.08
2023-01-23T09:34:16.973Z,45.92
2023-01-23T09:36:44.253Z,43.20
2023-01-23T09:39:11.781Z,42.97
2023-01-23T09:41:39.236Z,43.58
2023-01-23T09:44:13.300Z,45.45
2023-01-23T09:46:44.871Z,44.65
2023-01-23T09:49:18.359Z,40.60
2023-01-23T09:51:48.493Z,44.08
2023-01-23T09:54:33.975Z,41.67
2023-01-23T09:57:03.272Z,45.17
2023-01-23T09:59:37.611Z,42.42
2023-01-23T10:02:20.262Z,41.03
2023-01-23T10:04:51.625Z,42.90
2023-01-23T10:07:28.157Z,45.40
2023-01-23T10:09:55.162Z,43.00
2023-01-23T10:12:22.175Z,42.30
2023-01-23T10:14:58.673Z,44.50
2023-01-23T10:17:37.692Z,47.03
2023-01-23T10:20:14.768Z,43.97
2023-01-23T10:22:47.891Z,45.63
2023-01-23T10:25:14.904Z,42.65
2023-01-23T10:27:44.650Z,45.58
2023-01-23T10:30:23.634Z,44.85
2023-01-23T10:33:11.870Z,42.63
2023-01-23T10:35:47.620Z,41.67
2023-01-23T10:38:23.775Z,44.90
2023-01-23T10:41:09.574Z,43.17
2023-01-23T10:43:37.192Z,42.95
2023-01-23T10:46:11.162Z,44.63
2023-01-23T10:48:44.076Z,44.35
2023-01-23T10:51:29.863Z,46.78
2023-01-23T10:54:06.307Z,43.75
2023-01-23T10:56:34.703Z,43.53
2023-01-23T10:59:02.921Z,39.22
2023-01-23T11:01:31.425Z,48.22
2023-01-23T11:03:58.758Z,42.13
2023-01-23T11:06:25.915Z,42.95
2023-01-23T11:08:57.242Z,40.83
2023-01-23T11:11:25.811Z,47.30
2023-01-23T11:14:06.962Z,42.78
2023-01-23T11:16:34.694Z,40.88
2023-01-23T11:19:07.829Z,42.00
2023-01-23T11:21:36.350Z,30.98
2023-01-23T11:24:09.476Z,41.72
2023-01-23T11:26:37.580Z,38.60
2023-01-23T11:29:19.603Z,43.05
2023-01-23T11:31:47.065Z,42.88
2023-01-23T11:34:15.086Z,46.85
2023-01-23T11:36:46.205Z,43.80
2023-01-23T11:39:19.243Z,41.08
2023-01-23T11:41:46.851Z,41.88
2023-01-23T11:44:18.600Z,40.85
2023-01-23T11:47:03.325Z,42.30
2023-01-23T11:49:30.301Z,43.30
2023-01-23T11:52:05.849Z,43.28
2023-01-23T11:54:49.253Z,44.55
2023-01-23T11:57:45.847Z,44.40
2023-01-23T12:00:25.238Z,43.42
2023-01-23T12:02:55.088Z,41.83
2023-01-23T12:05:32.801Z,42.53
2023-01-23T12:08:08.905Z,41.92
2023-01-23T12:10:54.135Z,43.75
2023-01-23T12:13:39.699Z,43.25
2023-01-23T12:16:21.868Z,44.70
2023-01-23T12:19:09.018Z,40.53
2023-01-23T12:22:14.736Z,44.22
2023-01-23T12:25:00.532Z,38.17
2023-01-23T12:27:36.641Z,39.30
2023-01-23T12:30:22.561Z,40.60
2023-01-23T12:32:49.698Z,39.17
2023-01-23T12:35:25.738Z,41.15
2023-01-23T12:37:52.760Z,38.97
2023-01-23T12:40:25.385Z,38.50
2023-01-23T12:43:02.693Z,40.30
2023-01-23T12:45:30.912Z,40.00
2023-01-23T12:48:06.024Z,42.78
2023-01-23T12:50:35.810Z,37.88
2023-01-23T12:53:09.568Z,37.92
2023-01-23T12:58:11.118Z,38.45
2023-01-23T13:00:50.398Z,40.75
2023-01-23T13:03:44.864Z,40.72
2023-01-23T13:06:27.385Z,40.60
2023-01-23T13:09:18.545Z,42.95
2023-01-23T13:11:46.102Z,45.03
2023-01-23T13:14:29.145Z,40.95
2023-01-23T13:16:59.140Z,40.38
2023-01-23T13:19:45.714Z,40.08
2023-01-23T13:22:22.472Z,41.40
2023-01-23T13:25:17.097Z,40.72
2023-01-23T13:27:50.447Z,39.30
2023-01-23T13:30:25.054Z,40.13
2023-01-23T13:33:00.553Z,40.72
2023-01-23T13:35:39.840Z,35.42
2023-01-23T13:38:21.879Z,39.13
2023-01-23T13:41:11.278Z,39.00
2023-01-23T13:43:44.315Z,40.78
2023-01-23T13:46:18.365Z,40.67
2023-01-23T14:21:41.803Z,38.97
2023-01-23T14:24:25.415Z,40.78
2023-01-23T14:26:54.335Z,38.70
2023-01-23T14:29:24.929Z,39.58
2023-01-23T14:31:52.265Z,36.45
2023-01-23T14:34:20.761Z,39.03
2023-01-23T14:36:53.629Z,36.40
2023-01-23T14:39:22.320Z,34.95
2023-01-23T14:41:50.314Z,36.40
2023-01-23T14:44:21.702Z,37.08
2023-01-23T14:46:51.764Z,36.88
2023-01-23T14:49:23.074Z,36.78
2023-01-23T14:52:00.197Z,37.17
2023-01-23T14:54:32.545Z,36.90
2023-01-23T14:57:01.307Z,38.80
2023-01-23T14:59:36.618Z,38.92
2023-01-23T15:02:13.189Z,38.30
2023-01-23T15:05:06.818Z,37.47
2023-01-23T15:07:34.394Z,37.60
2023-01-23T15:10:01.413Z,39.65
2023-01-23T15:12:28.603Z,39.00
2023-01-23T15:14:56.483Z,39.85
2023-01-23T15:17:23.663Z,36.30
2023-01-23T15:19:52.391Z,38.45
2023-01-23T15:22:21.920Z,37.83
2023-01-23T15:24:49.264Z,39.13
2023-01-23T15:27:22.666Z,38.17
2023-01-23T15:29:49.964Z,43.33
2023-01-23T15:32:19.720Z,40.67
2023-01-23T15:34:53.613Z,38.97
2023-01-23T15:37:28.485Z,41.83
2023-01-23T15:40:02.303Z,41.72
2023-01-23T15:42:31.180Z,41.33
2023-01-23T15:45:01.186Z,42.58
2023-01-23T15:47:32.322Z,43.90
2023-01-23T15:50:02.943Z,39.83
2023-01-23T15:52:31.600Z,41.15
2023-01-23T15:55:00.740Z,45.85
2023-01-23T15:57:27.990Z,52.05
2023-01-23T15:59:55.066Z,50.55
2023-01-23T16:02:32.917Z,47.10
2023-01-23T16:05:01.673Z,46.80
2023-01-23T16:07:32.331Z,49.45
2023-01-23T16:09:59.353Z,51.55
2023-01-23T16:12:28.666Z,49.70
2023-01-23T16:14:55.984Z,47.88
2023-01-23T16:17:23.397Z,52.58
2023-01-23T16:19:50.641Z,55.60
2023-01-23T16:22:28.946Z,57.13
2023-01-23T16:24:56.369Z,50.35
2023-01-23T16:27:27.563Z,49.83
2023-01-23T16:29:55.048Z,49.17
2023-01-23T16:32:22.282Z,53.17
2023-01-23T16:34:49.727Z,56.70
2023-01-23T16:37:18.100Z,59.97
2023-01-23T16:39:47.139Z,54.92
2023-01-23T16:42:24.940Z,53.20
2023-01-23T16:44:52.207Z,55.90
2023-01-23T16:47:19.574Z,55.97
2023-01-23T16:49:52.703Z,59.92
2023-01-23T16:52:20.934Z,56.28
2023-01-23T16:54:51.961Z,57.20
2023-01-23T16:57:20.751Z,53.22
2023-01-23T16:59:49.865Z,53.25
2023-01-23T17:02:25.321Z,56.00
2023-01-23T17:04:52.368Z,55.83
2023-01-23T17:07:19.981Z,56.83
2023-01-23T17:09:47.569Z,61.92
2023-01-23T17:12:20.822Z,56.63
2023-01-23T17:14:48.901Z,59.40
2023-01-23T17:17:20.356Z,53.65
2023-01-23T17:19:47.527Z,51.65
2023-01-23T17:22:22.982Z,51.95
2023-01-23T17:24:50.145Z,49.80
2023-01-23T17:27:17.179Z,52.25
2023-01-23T17:29:44.189Z,52.50
2023-01-23T17:32:21.818Z,48.42
2023-01-23T17:34:50.564Z,47.05
2023-01-23T17:37:20.413Z,50.13
2023-01-23T17:39:47.500Z,50.55
2023-01-23T17:42:14.663Z,48.58
2023-01-23T17:44:41.871Z,51.00
2023-01-23T17:47:11.039Z,48.03
2023-01-23T17:49:38.441Z,45.58
2023-01-23T17:52:06.153Z,48.50
2023-01-23T17:54:33.216Z,46.72
2023-01-23T17:57:00.278Z,44.60
2023-01-23T17:59:27.437Z,49.05
2023-01-23T18:01:54.689Z,46.75
2023-01-23T18:04:22.765Z,50.15
2023-01-23T18:06:50.461Z,50.50
2023-01-23T18:09:18.762Z,48.17
2023-01-23T18:11:51.960Z,47.78
2023-01-23T18:14:25.227Z,46.47
2023-01-23T18:16:53.604Z,48.25
2023-01-23T18:19:21.902Z,52.22
2023-01-23T18:21:50.080Z,49.75
2023-01-23T18:24:24.165Z,55.40
2023-01-23T18:26:59.149Z,51.92
2023-01-23T18:29:30.374Z,49.28
2023-01-23T18:32:08.267Z,48.38
2023-01-23T18:34:51.899Z,53.28
2023-01-23T18:37:39.865Z,56.17
2023-01-23T18:40:06.939Z,54.83
2023-01-23T18:42:45.969Z,51.78
2023-01-23T18:45:20.722Z,56.00
2023-01-23T18:47:53.844Z,54.08
2023-01-23T18:50:22.907Z,63.00
2023-01-23T18:53:06.788Z,58.72
2023-01-23T18:55:39.682Z,63.92
2023-01-23T18:58:15.551Z,62.57
2023-01-23T19:00:50.321Z,60.30
2023-01-23T19:03:18.359Z,62.47
2023-01-23T19:05:46.178Z,70.68
2023-01-23T19:08:28.036Z,68.00
2023-01-23T19:10:56.393Z,72.00
2023-01-23T19:13:29.609Z,65.45
2023-01-23T19:16:08.005Z,66.78
2023-01-23T19:18:40.028Z,65.00
2023-01-23T19:21:13.898Z,71.55
2023-01-23T19:23:54.929Z,65.82
2023-01-23T19:26:22.248Z,65.05
2023-01-23T19:28:50.658Z,67.45
2023-01-23T19:31:28.213Z,70.32
2023-01-23T19:33:55.608Z,77.93
2023-01-23T19:36:23.637Z,69.40
2023-01-23T19:38:52.455Z,62.85
2023-01-23T19:41:19.650Z,69.05
2023-01-23T19:43:50.702Z,71.32
2023-01-23T19:46:18.191Z,72.50
2023-01-23T19:48:45.309Z,70.40
2023-01-23T19:51:13.792Z,73.35
2023-01-23T19:53:41.138Z,74.80
2023-01-23T19:56:09.435Z,74.18
2023-01-23T19:58:36.462Z,70.22
2023-01-23T20:01:04.160Z,75.13
2023-01-23T20:03:31.231Z,71.07
2023-01-23T20:05:59.547Z,68.45
2023-01-23T20:08:26.583Z,75.65
2023-01-23T20:10:53.590Z,80.30
2023-01-23T20:13:20.601Z,71.78
2023-01-23T20:15:49.981Z,72.45
2023-01-23T20:18:17.240Z,73.18
2023-01-23T20:20:45.474Z,77.38
2023-01-23T20:23:12.590Z,74.07
2023-01-23T20:25:39.801Z,73.63
2023-01-23T20:28:07.944Z,69.32
2023-01-23T20:30:35.069Z,70.97
2023-01-23T20:33:03.276Z,72.80
2023-01-23T20:35:30.476Z,75.80
2023-01-23T20:37:58.479Z,73.82
2023-01-23T20:40:27.401Z,69.82
2023-01-23T20:42:54.496Z,72.63
2023-01-23T20:45:21.905Z,77.43
2023-01-23T20:47:49.325Z,72.68
2023-01-23T20:50:16.560Z,75.18
2023-01-23T20:53:02.316Z,71.10
2023-01-23T20:55:29.315Z,69.70
2023-01-23T20:58:15.257Z,70.07
2023-01-23T21:00:44.365Z,77.15
2023-01-23T21:03:11.396Z,68.55
2023-01-23T21:05:38.540Z,70.93
2023-01-23T21:08:05.619Z,66.90
2023-01-23T21:10:32.630Z,71.80
2023-01-23T21:12:59.652Z,69.32
2023-01-23T21:15:26.942Z,72.03
2023-01-23T21:17:53.983Z,75.07
2023-01-23T21:20:21.021Z,65.60
2023-01-23T21:22:48.205Z,70.20
2023-01-23T21:25:15.411Z,67.13
2023-01-23T21:27:42.426Z,71.18
2023-01-23T21:30:09.860Z,65.28
2023-01-23T21:32:36.950Z,73.85
2023-01-23T21:35:04.038Z,68.30
2023-01-23T21:37:31.085Z,65.70
2023-01-23T21:39:58.118Z,69.93
2023-01-23T21:42:25.176Z,69.30
2023-01-23T21:44:54.994Z,75.10
2023-01-23T21:47:22.939Z,75.22
2023-01-23T21:49:51.547Z,76.40
2023-01-23T21:52:18.645Z,71.15
2023-01-23T21:54:45.709Z,75.07
2023-01-23T21:57:12.760Z,75.45
2023-01-23T21:59:40.059Z,75.72
2023-01-23T22:02:07.039Z,77.82
2023-01-23T22:04:34.173Z,75.25
2023-01-23T22:07:01.295Z,75.00
2023-01-23T22:09:28.357Z,71.05
2023-01-23T22:11:55.694Z,74.35
2023-01-23T22:14:22.889Z,71.15
2023-01-23T22:16:50.850Z,80.25
2023-01-23T22:19:22.587Z,74.68
2023-01-23T22:21:51.494Z,72.70
2023-01-23T22:24:18.630Z,75.47
2023-01-23T22:26:45.686Z,73.88
2023-01-23T22:29:15.773Z,77.40
2023-01-23T22:31:43.418Z,80.88
2023-01-23T22:34:11.036Z,74.80
2023-01-23T22:36:38.119Z,71.55
2023-01-23T22:39:05.238Z,73.22
2023-01-23T22:41:32.761Z,74.97
2023-01-23T22:43:59.793Z,74.13
2023-01-23T22:46:27.463Z,70.88
2023-01-23T22:48:54.520Z,68.07
2023-01-23T22:51:24.628Z,59.25
2023-01-23T22:53:52.411Z,67.40
2023-01-23T22:56:19.494Z,71.25
2023-01-23T22:58:47.033Z,67.03
2023-01-23T23:01:14.411Z,66.22
2023-01-23T23:03:41.652Z,69.53
2023-01-23T23:06:10.301Z,73.28
2023-01-23T23:08:37.427Z,69.93
2023-01-23T23:11:06.077Z,68.00
2023-01-23T23:13:34.418Z,71.78
2023-01-23T23:16:04.739Z,66.35
2023-01-23T23:18:31.885Z,72.60
2023-01-23T23:21:00.108Z,72.22
2023-01-23T23:23:27.184Z,74.20
2023-01-23T23:25:55.004Z,72.05
2023-01-23T23:28:22.903Z,69.55
2023-01-23T23:30:50.284Z,69.35
2023-01-23T23:33:17.420Z,69.47
2023-01-23T23:35:44.803Z,71.72
2023-01-23T23:38:12.321Z,70.15
2023-01-23T23:40:39.679Z,69.90
2023-01-23T23:43:06.910Z,73.03
2023-01-23T23:45:33.920Z,78.70
2023-01-23T23:48:02.147Z,75.55
2023-01-23T23:50:29.367Z,75.60
2023-01-23T23:52:56.558Z,73.88
2023-01-23T23:55:23.804Z,73.07
2023-01-23T23:57:50.882Z,78.00
